Time;durP1;ratioP1;P1;durP2;ratioP2;P2;SDS_P1;SDS_P2;PMS_P1;PMS_P2;Temp;Humidity;BMP_temperature;BMP_pressure;BME280_temperature;BME280_humidity;BME280_pressure;Samples;Min_cycle;Max_cycle;Signal;HPM_P1;HPM_P2
2022/03/21 00:00:27;;;;;;;66.22;44.60;;;7.20;99.90;;;;;;6153191;23;20021;-76
2022/03/21 00:02:54;;;;;;;66.85;46.13;;;7.20;99.90;;;;;;6153755;23;20052;-76
2022/03/21 00:05:20;;;;;;;67.85;44.58;;;7.20;99.90;;;;;;6153670;23;20052;-76
2022/03/21 00:07:46;;;;;;;62.15;43.60;;;7.40;99.90;;;;;;6153765;23;20416;-76
2022/03/21 00:10:12;;;;;;;63.72;43.13;;;7.20;99.90;;;;;;6153680;23;20021;-76
2022/03/21 00:12:39;;;;;;;61.25;43.42;;;7.30;99.90;;;;;;6153707;23;20024;-76
2022/03/21 00:15:11;;;;;;;64.80;43.28;;;7.20;99.90;;;;;;6153617;23;20093;-76
2022/03/21 00:17:40;;;;;;;59.30;40.95;;;7.20;99.90;;;;;;6129281;23;20025;-76
2022/03/21 00:20:10;;;;;;;58.95;41.25;;;7.20;99.90;;;;;;6153857;23;20013;-76
2022/03/21 00:22:37;;;;;;;57.33;38.72;;;7.20;99.90;;;;;;6155303;23;20009;-76
2022/03/21 00:25:05;;;;;;;54.78;38.45;;;7.20;99.90;;;;;;6153605;23;20017;-76
2022/03/21 00:27:32;;;;;;;56.08;38.58;;;7.20;99.90;;;;;;6155178;23;20455;-76
2022/03/21 00:29:58;;;;;;;59.70;40.30;;;7.20;99.90;;;;;;6105001;23;20014;-76
2022/03/21 00:32:25;;;;;;;61.63;38.03;;;7.20;99.90;;;;;;6153196;23;20013;-76
2022/03/21 00:34:50;;;;;;;55.03;35.58;;;7.20;99.90;;;;;;6155409;23;20013;-76
2022/03/21 00:37:16;;;;;;;48.08;35.78;;;7.20;99.90;;;;;;6153332;23;20028;-76
2022/03/21 00:39:43;;;;;;;50.90;35.35;;;7.30;99.90;;;;;;6155328;23;20344;-77
2022/03/21 00:42:10;;;;;;;55.60;36.95;;;7.30;99.90;;;;;;6153749;23;20437;-77
2022/03/21 00:44:39;;;;;;;49.03;34.67;;;7.30;99.90;;;;;;6155317;23;20328;-77
2022/03/21 00:47:05;;;;;;;53.80;37.50;;;7.10;99.90;;;;;;6153282;23;20076;-77
2022/03/21 00:49:30;;;;;;;51.95;34.13;;;7.10;99.90;;;;;;6153750;23;20010;-77
2022/03/21 00:51:56;;;;;;;57.75;37.35;;;7.10;99.90;;;;;;6154762;23;20506;-76
2022/03/21 00:54:22;;;;;;;55.60;35.80;;;7.10;99.90;;;;;;6153473;23;20018;-76
2022/03/21 00:56:48;;;;;;;52.30;35.33;;;7.20;99.90;;;;;;6153708;23;20066;-76
2022/03/21 00:59:13;;;;;;;47.17;33.78;;;7.10;99.90;;;;;;6153228;23;20020;-76
2022/03/21 01:01:39;;;;;;;49.88;34.60;;;7.10;99.90;;;;;;6129423;23;20389;-76
2022/03/21 01:04:05;;;;;;;47.70;32.50;;;7.10;99.90;;;;;;6153448;23;20432;-76
2022/03/21 01:06:30;;;;;;;46.80;33.88;;;7.00;99.90;;;;;;6153121;23;20384;-76
2022/03/21 01:08:56;;;;;;;47.58;33.45;;;7.00;99.90;;;;;;6154904;23;20412;-76
2022/03/21 01:11:25;;;;;;;49.75;32.58;;;7.10;99.90;;;;;;6153284;23;20009;-76
2022/03/21 01:13:50;;;;;;;47.45;30.92;;;7.00;99.90;;;;;;6153454;23;20021;-76
2022/03/21 01:16:16;;;;;;;47.05;31.55;;;7.00;99.90;;;;;;6153149;23;20344;-76
2022/03/21 01:18:45;;;;;;;47.60;31.10;;;7.00;99.90;;;;;;6153019;23;20025;-76
2022/03/21 01:21:12;;;;;;;46.85;30.73;;;7.00;99.90;;;;;;6104977;23;20084;-76
2022/03/21 01:23:38;;;;;;;48.03;31.17;;;7.00;99.90;;;;;;6153346;23;20010;-76
2022/03/21 01:26:04;;;;;;;45.17;30.50;;;7.20;99.90;;;;;;6152181;23;20024;-76
2022/03/21 01:28:30;;;;;;;44.35;28.98;;;7.00;99.90;;;;;;6153375;23;20072;-76
2022/03/21 01:30:56;;;;;;;42.75;28.65;;;6.90;99.90;;;;;;6153357;23;20014;-76
2022/03/21 01:33:22;;;;;;;42.28;28.77;;;6.90;99.90;;;;;;6128672;23;20029;-76
2022/03/21 01:35:47;;;;;;;42.30;28.67;;;7.00;99.90;;;;;;6153433;23;20068;-76
2022/03/21 01:38:14;;;;;;;39.20;27.85;;;6.90;99.90;;;;;;6155221;23;20018;-76
2022/03/21 01:40:40;;;;;;;39.80;26.67;;;6.90;99.90;;;;;;6153409;23;20024;-76
2022/03/21 01:43:10;;;;;;;42.58;27.65;;;6.90;99.90;;;;;;6152568;23;20445;-76
2022/03/21 01:45:36;;;;;;;40.80;26.23;;;6.90;99.90;;;;;;6153230;23;20052;-76
2022/03/21 01:48:02;;;;;;;42.38;26.65;;;6.80;99.90;;;;;;6153024;23;20022;-76
2022/03/21 01:50:27;;;;;;;41.55;26.70;;;6.80;99.90;;;;;;6178227;23;20013;-76
2022/03/21 01:55:43;;;;;;;37.20;25.83;;;6.80;99.90;;;;;;6128717;23;20010;-76
2022/03/21 01:55:48;;;;;;;;;;;6.70;99.90;;;;;;6153592;23;20072;-77
2022/03/21 01:58:15;;;;;;;36.70;25.27;;;6.80;99.90;;;;;;6154981;23;19912;-77
2022/03/21 02:00:41;;;;;;;36.10;24.17;;;6.70;99.90;;;;;;6152836;23;20080;-77
2022/03/21 02:03:07;;;;;;;47.15;24.52;;;6.70;99.90;;;;;;6154911;23;20092;-76
2022/03/21 02:05:36;;;;;;;41.50;23.65;;;6.70;99.90;;;;;;6155095;23;20395;-77
2022/03/21 02:08:02;;;;;;;36.55;24.33;;;6.70;99.90;;;;;;6156417;23;20018;-76
2022/03/21 02:10:29;;;;;;;36.50;23.42;;;6.60;99.90;;;;;;6156436;23;20096;-76
2022/03/21 02:12:55;;;;;;;36.85;22.63;;;6.60;99.90;;;;;;6130200;23;20014;-76
2022/03/21 02:15:21;;;;;;;34.30;23.02;;;6.60;99.90;;;;;;6154902;23;20087;-76
2022/03/21 02:17:48;;;;;;;35.50;22.80;;;6.60;99.90;;;;;;6154418;23;20024;-76
2022/03/21 02:20:17;;;;;;;36.22;22.85;;;6.60;99.90;;;;;;6156376;23;20013;-76
2022/03/21 02:22:46;;;;;;;35.20;23.30;;;6.50;99.90;;;;;;6130268;23;20017;-76
2022/03/21 02:25:22;;;;;;;33.90;23.00;;;6.50;99.90;;;;;;6154778;23;20021;-76
2022/03/21 02:27:51;;;;;;;37.90;23.15;;;6.50;99.90;;;;;;6156430;23;20014;-76
2022/03/21 02:30:17;;;;;;;34.67;21.70;;;6.40;99.90;;;;;;6154877;23;20432;-76
2022/03/21 02:32:48;;;;;;;32.47;20.77;;;6.70;99.90;;;;;;6156675;23;20313;-76
2022/03/21 02:35:16;;;;;;;32.38;20.80;;;6.40;99.90;;;;;;6130148;23;20017;-76
2022/03/21 02:37:46;;;;;;;37.45;21.75;;;6.30;99.90;;;;;;6130121;23;20026;-76
2022/03/21 02:40:13;;;;;;;29.30;20.73;;;6.30;99.90;;;;;;6155041;23;20053;-76
2022/03/21 02:42:39;;;;;;;32.83;21.50;;;6.30;99.90;;;;;;6154625;23;20025;-76
2022/03/21 02:45:06;;;;;;;34.53;22.00;;;6.30;99.90;;;;;;6130305;23;20021;-76
2022/03/21 02:47:32;;;;;;;30.17;20.80;;;6.30;99.90;;;;;;6130169;23;20459;-76
2022/03/21 02:50:03;;;;;;;33.20;21.08;;;6.20;99.90;;;;;;6155013;23;20010;-75
2022/03/21 02:52:30;;;;;;;36.75;22.75;;;6.30;99.90;;;;;;6154076;23;20149;-76
2022/03/21 02:54:56;;;;;;;32.10;21.73;;;6.10;99.90;;;;;;6156424;23;20009;-76
2022/03/21 02:57:22;;;;;;;38.35;23.33;;;6.10;99.90;;;;;;6130194;23;20025;-76
2022/03/21 02:59:50;;;;;;;32.42;20.95;;;6.10;99.90;;;;;;6156218;23;20021;-76
2022/03/21 03:02:18;;;;;;;32.35;20.35;;;6.10;99.90;;;;;;6156331;23;20014;-76
2022/03/21 03:04:43;;;;;;;37.17;21.55;;;6.10;99.90;;;;;;6154247;23;20017;-76
2022/03/21 03:07:09;;;;;;;30.65;20.52;;;6.20;99.90;;;;;;6154422;23;20014;-76
2022/03/21 03:09:35;;;;;;;30.33;20.42;;;6.00;99.90;;;;;;6155685;23;20020;-76
2022/03/21 03:12:01;;;;;;;30.48;20.38;;;6.00;99.90;;;;;;6156099;23;20440;-76
2022/03/21 03:14:27;;;;;;;32.70;20.45;;;6.00;99.90;;;;;;6155662;23;20092;-76
2022/03/21 03:16:52;;;;;;;32.72;19.92;;;6.00;99.90;;;;;;6154240;23;20017;-76
2022/03/21 03:19:18;;;;;;;32.95;20.42;;;5.90;99.90;;;;;;6154230;23;20013;-76
2022/03/21 03:21:46;;;;;;;29.15;18.48;;;6.00;99.90;;;;;;6154196;23;20014;-76
2022/03/21 03:24:13;;;;;;;29.63;19.02;;;6.00;99.90;;;;;;6155412;23;20056;-76
2022/03/21 03:26:39;;;;;;;32.55;20.15;;;5.90;99.90;;;;;;6155780;23;20471;-75
2022/03/21 03:29:05;;;;;;;33.28;19.73;;;6.20;99.90;;;;;;6129733;23;20047;-75
2022/03/21 03:31:34;;;;;;;29.23;18.83;;;5.70;99.90;;;;;;6154205;23;20014;-75
2022/03/21 03:34:00;;;;;;;29.10;19.15;;;5.80;99.90;;;;;;6129462;23;20045;-75
2022/03/21 03:36:26;;;;;;;31.13;19.35;;;5.80;99.90;;;;;;6154476;23;20333;-75
2022/03/21 03:38:52;;;;;;;33.10;20.25;;;5.80;99.90;;;;;;6155971;23;20017;-76
2022/03/21 03:41:21;;;;;;;27.95;18.42;;;5.80;99.90;;;;;;6154216;23;20588;-76
2022/03/21 03:43:47;;;;;;;33.33;19.40;;;5.70;99.90;;;;;;6153530;23;20014;-76
2022/03/21 03:46:15;;;;;;;29.63;18.33;;;5.70;99.90;;;;;;6155584;23;20345;-76
2022/03/21 03:48:51;;;;;;;28.42;18.55;;;5.70;99.90;;;;;;6153650;23;20022;-76
2022/03/21 03:51:17;;;;;;;34.05;18.83;;;5.70;99.90;;;;;;6129485;23;20015;-76
2022/03/21 03:53:43;;;;;;;29.65;19.10;;;5.70;99.90;;;;;;6153849;23;20089;-76
2022/03/21 03:56:09;;;;;;;29.15;18.50;;;5.70;99.90;;;;;;6154420;23;20010;-76
2022/03/21 03:58:39;;;;;;;30.98;19.38;;;5.70;99.90;;;;;;6153684;23;20018;-76
2022/03/21 04:01:05;;;;;;;31.20;18.80;;;5.70;99.90;;;;;;6178758;23;20060;-76
2022/03/21 04:03:49;;;;;;;30.77;18.90;;;5.70;99.90;;;;;;6155557;23;20044;-77
2022/03/21 04:06:17;;;;;;;30.48;19.25;;;5.80;99.90;;;;;;6153957;23;20014;-77
2022/03/21 04:08:44;;;;;;;27.92;18.70;;;5.40;99.90;;;;;;6129198;23;20021;-76
2022/03/21 04:11:10;;;;;;;35.92;19.98;;;5.70;99.90;;;;;;6129043;23;20039;-77
2022/03/21 04:13:36;;;;;;;31.88;19.88;;;5.70;99.90;;;;;;6153643;23;20021;-76
2022/03/21 04:16:03;;;;;;;30.00;18.70;;;5.70;99.90;;;;;;6154964;23;20010;-76
2022/03/21 04:18:29;;;;;;;29.55;18.75;;;5.70;99.90;;;;;;6129474;23;20013;-76
2022/03/21 04:20:57;;;;;;;28.83;19.13;;;5.70;99.90;;;;;;6153182;23;20024;-77
2022/03/21 04:23:23;;;;;;;33.22;19.75;;;5.70;99.90;;;;;;6155346;23;20104;-76
2022/03/21 04:25:55;;;;;;;32.50;19.15;;;5.50;99.90;;;;;;6130124;23;20021;-76
2022/03/21 04:28:21;;;;;;;31.00;19.75;;;5.70;99.90;;;;;;6129477;23;20021;-76
2022/03/21 04:30:47;;;;;;;32.30;19.23;;;5.70;99.90;;;;;;6128964;23;20068;-76
2022/03/21 04:33:13;;;;;;;26.75;18.63;;;5.60;99.90;;;;;;6153291;23;20309;-75
2022/03/21 04:35:40;;;;;;;32.92;19.05;;;5.60;99.90;;;;;;6153669;23;20072;-75
2022/03/21 04:38:13;;;;;;;26.85;18.00;;;5.60;99.90;;;;;;6104919;23;20337;-75
2022/03/21 04:40:44;;;;;;;30.60;18.20;;;5.60;99.90;;;;;;6153585;23;20018;-75
2022/03/21 04:43:14;;;;;;;36.35;18.52;;;5.80;99.90;;;;;;6153504;23;20322;-73
2022/03/21 04:45:43;;;;;;;30.27;18.30;;;5.50;99.90;;;;;;6153681;23;20096;-73
2022/03/21 04:48:09;;;;;;;33.17;19.75;;;5.50;99.90;;;;;;6153347;23;20017;-73
2022/03/21 04:50:36;;;;;;;33.22;19.65;;;5.50;99.90;;;;;;6155318;23;20010;-74
2022/03/21 04:53:02;;;;;;;32.83;18.48;;;5.50;99.90;;;;;;6153286;23;20497;-74
2022/03/21 04:55:28;;;;;;;31.90;18.95;;;5.50;99.90;;;;;;6153329;23;20049;-74
2022/03/21 04:57:54;;;;;;;30.38;19.10;;;5.40;99.90;;;;;;6128866;23;20025;-74
2022/03/21 05:00:20;;;;;;;29.83;19.67;;;5.30;99.90;;;;;;6128889;23;20444;-74
2022/03/21 05:02:46;;;;;;;29.85;18.45;;;5.40;99.90;;;;;;6153620;23;20028;-76
2022/03/21 05:05:12;;;;;;;29.00;19.42;;;5.60;99.90;;;;;;6154970;23;20014;-74
2022/03/21 05:07:52;;;;;;;30.65;18.27;;;5.40;99.90;;;;;;6153324;23;20020;-74
2022/03/21 05:10:19;;;;;;;31.52;17.52;;;5.40;99.90;;;;;;6154725;23;20068;-74
2022/03/21 05:12:45;;;;;;;34.75;18.92;;;5.60;99.90;;;;;;6128896;23;20009;-75
2022/03/21 05:15:11;;;;;;;31.10;19.35;;;5.30;99.90;;;;;;6153486;23;20101;-74
2022/03/21 05:17:37;;;;;;;29.40;19.15;;;5.30;99.90;;;;;;6153346;23;20104;-74
2022/03/21 05:20:15;;;;;;;33.53;20.25;;;5.30;99.90;;;;;;6153282;23;20125;-76
2022/03/21 05:22:41;;;;;;;28.50;19.40;;;5.30;99.90;;;;;;6153155;23;20321;-76
2022/03/21 05:36:04;;;;;;;32.55;20.50;;;5.20;99.90;;;;;;6132541;23;20511;-74
2022/03/21 05:38:31;;;;;;;33.45;19.70;;;5.20;99.90;;;;;;6155855;23;20072;-75
2022/03/21 05:41:00;;;;;;;28.50;19.30;;;5.30;99.90;;;;;;6155164;23;20014;-74
2022/03/21 05:43:30;;;;;;;35.63;20.05;;;5.20;99.90;;;;;;6130658;23;20092;-74
2022/03/21 05:45:56;;;;;;;31.10;19.17;;;5.30;99.90;;;;;;6179908;23;20025;-74
2022/03/21 05:51:07;;;;;;;36.67;20.52;;;5.10;99.90;;;;;;6156814;23;20021;-75
2022/03/21 05:53:33;;;;;;;30.23;20.35;;;5.10;99.90;;;;;;6180135;23;20017;-76
2022/03/21 05:56:00;;;;;;;33.50;19.80;;;5.10;99.90;;;;;;6156275;23;20049;-76
2022/03/21 05:58:29;;;;;;;31.98;19.77;;;5.20;99.90;;;;;;6155081;23;20318;-76
2022/03/21 06:00:55;;;;;;;34.05;20.60;;;5.10;99.90;;;;;;6155136;23;20017;-76
2022/03/21 06:03:24;;;;;;;29.13;19.63;;;5.10;99.90;;;;;;6155062;23;20430;-76
2022/03/21 06:05:50;;;;;;;32.03;21.15;;;5.10;99.90;;;;;;6155011;23;20009;-75
2022/03/21 06:08:22;;;;;;;30.00;19.50;;;5.10;99.90;;;;;;6155026;23;20440;-76
2022/03/21 06:11:03;;;;;;;34.72;19.85;;;5.20;99.90;;;;;;6154557;23;20021;-76
2022/03/21 06:13:33;;;;;;;31.48;20.88;;;5.20;99.90;;;;;;6155229;23;20022;-75
2022/03/21 06:16:04;;;;;;;34.85;20.27;;;5.20;99.90;;;;;;6129672;23;20014;-76
2022/03/21 06:18:46;;;;;;;34.88;20.10;;;4.90;99.90;;;;;;6129792;23;20018;-77
2022/03/21 06:21:14;;;;;;;31.33;21.02;;;5.10;99.90;;;;;;6155133;23;20021;-78
2022/03/21 06:23:40;;;;;;;33.58;20.85;;;5.20;99.90;;;;;;6154500;23;20432;-76
2022/03/21 06:26:07;;;;;;;31.42;20.30;;;5.20;99.90;;;;;;6156689;23;20009;-79
2022/03/21 06:28:33;;;;;;;34.63;21.63;;;5.30;99.90;;;;;;6154602;23;20021;-77
2022/03/21 06:31:00;;;;;;;38.47;23.27;;;5.30;99.90;;;;;;6156628;23;20009;-78
2022/03/21 06:33:28;;;;;;;33.10;21.77;;;5.30;99.90;;;;;;6154935;23;20021;-79
2022/03/21 06:35:55;;;;;;;34.88;22.23;;;5.40;99.90;;;;;;6152240;23;20020;-82
2022/03/21 06:38:21;;;;;;;38.47;22.00;;;5.40;99.90;;;;;;6152779;23;20014;-81
2022/03/21 06:40:47;;;;;;;34.00;22.40;;;5.50;99.90;;;;;;6128665;23;20024;-81
2022/03/21 06:43:15;;;;;;;35.17;22.00;;;5.50;99.90;;;;;;6128381;23;20017;-80
2022/03/21 06:45:42;;;;;;;33.83;22.08;;;5.60;99.90;;;;;;6153394;23;20024;-80
2022/03/21 06:48:09;;;;;;;35.35;22.80;;;5.60;99.90;;;;;;6152846;23;20033;-81
2022/03/21 06:50:35;;;;;;;37.22;22.15;;;5.60;99.90;;;;;;6152223;23;20014;-82
2022/03/21 06:53:01;;;;;;;38.30;23.23;;;5.70;99.90;;;;;;6154231;23;20024;-82
2022/03/21 06:55:27;;;;;;;37.55;23.15;;;5.70;99.90;;;;;;6152032;23;20010;-82
2022/03/21 06:57:55;;;;;;;37.90;23.90;;;5.70;99.90;;;;;;6128490;23;20342;-82
2022/03/21 07:00:21;;;;;;;38.60;23.80;;;5.80;99.90;;;;;;6128941;23;20017;-83
2022/03/21 07:02:46;;;;;;;38.40;24.80;;;5.80;99.90;;;;;;6155258;23;20020;-81
2022/03/21 07:05:12;;;;;;;42.92;25.60;;;5.80;99.90;;;;;;6156086;23;20064;-81
2022/03/21 07:07:41;;;;;;;39.17;25.33;;;5.90;99.90;;;;;;6154454;23;20190;-81
2022/03/21 07:10:09;;;;;;;45.53;26.70;;;5.90;99.90;;;;;;6129730;23;20444;-81
2022/03/21 07:12:35;;;;;;;39.03;25.90;;;6.00;99.90;;;;;;6155828;23;20020;-80
2022/03/21 07:15:05;;;;;;;39.60;25.90;;;6.60;99.90;;;;;;6154282;23;20085;-80
2022/03/21 07:17:31;;;;;;;51.72;30.00;;;6.10;99.90;;;;;;6129391;23;20097;-81
2022/03/21 07:19:57;;;;;;;44.17;28.23;;;6.20;99.90;;;;;;6129038;23;20048;-80
2022/03/21 07:22:22;;;;;;;43.78;29.63;;;6.20;99.90;;;;;;6149514;23;20017;-80
2022/03/21 07:24:49;;;;;;;49.53;28.90;;;6.20;99.90;;;;;;6127809;23;20492;-80
2022/03/21 07:27:15;;;;;;;48.05;28.88;;;6.30;99.90;;;;;;6126805;23;20025;-80
2022/03/21 07:29:41;;;;;;;44.05;29.63;;;6.30;99.90;;;;;;6150854;23;20024;-81
2022/03/21 07:32:07;;;;;;;41.17;27.95;;;6.40;99.90;;;;;;6151884;23;20017;-80
2022/03/21 07:34:33;;;;;;;48.40;27.17;;;6.50;99.90;;;;;;6151733;23;20014;-80
2022/03/21 07:36:59;;;;;;;37.65;27.15;;;6.60;99.90;;;;;;6151621;23;20105;-81
2022/03/21 07:39:25;;;;;;;44.92;27.45;;;6.70;99.90;;;;;;6127449;23;20018;-77
2022/03/21 07:41:59;;;;;;;41.13;27.67;;;6.60;99.90;;;;;;6153273;23;20459;-76
2022/03/21 07:47:22;;;;;;;39.20;24.05;;;6.70;99.90;;;;;;6129772;23;20291;-75
2022/03/21 07:49:55;;;;;;;41.30;25.35;;;6.80;99.90;;;;;;6126445;23;20010;-75
2022/03/21 07:52:21;;;;;;;45.47;26.05;;;6.80;99.90;;;;;;6150355;23;20071;-75
2022/03/21 07:54:55;;;;;;;41.53;24.67;;;6.90;99.90;;;;;;6127245;23;20444;-74
2022/03/21 07:57:26;;;;;;;38.25;24.13;;;7.00;99.90;;;;;;6151505;23;20022;-78
2022/03/21 07:59:53;;;;;;;42.78;26.85;;;7.00;99.90;;;;;;6128382;23;20101;-76
2022/03/21 08:02:19;;;;;;;42.65;25.90;;;7.10;99.90;;;;;;6150461;23;20021;-76
2022/03/21 08:04:50;;;;;;;40.92;23.80;;;7.80;99.90;;;;;;6126518;23;20017;-76
2022/03/21 08:07:20;;;;;;;40.97;24.33;;;7.20;99.90;;;;;;6152982;23;20091;-76
2022/03/21 08:09:46;;;;;;;37.15;23.45;;;7.20;99.90;;;;;;6150960;23;20014;-76
2022/03/21 08:12:12;;;;;;;38.63;24.48;;;7.40;99.90;;;;;;6101858;23;20045;-73
2022/03/21 08:14:38;;;;;;;44.53;22.88;;;7.40;99.90;;;;;;6176297;23;20025;-76
2022/03/21 08:17:05;;;;;;;34.17;24.02;;;7.50;99.90;;;;;;6151463;23;20076;-73
2022/03/21 08:19:31;;;;;;;41.22;25.05;;;7.60;99.90;;;;;;6150690;23;20024;-73
2022/03/21 08:21:56;;;;;;;35.33;24.10;;;7.60;99.90;;;;;;6151188;23;20013;-73
2022/03/21 08:24:23;;;;;;;36.45;23.17;;;8.20;99.90;;;;;;6152820;23;20340;-73
2022/03/21 08:27:00;;;;;;;35.95;23.55;;;7.70;99.90;;;;;;6150524;23;20017;-72
2022/03/21 08:29:26;;;;;;;36.45;22.98;;;7.70;99.90;;;;;;6126958;23;20068;-73
2022/03/21 08:31:51;;;;;;;39.13;24.55;;;8.30;99.90;;;;;;6151479;23;20018;-72
2022/03/21 08:34:17;;;;;;;40.13;22.65;;;7.80;99.90;;;;;;6151480;23;20318;-73
2022/03/21 08:36:43;;;;;;;37.92;23.05;;;7.90;99.90;;;;;;6151352;23;20458;-73
2022/03/21 08:39:10;;;;;;;37.85;23.30;;;7.90;99.90;;;;;;6151170;23;20356;-74
2022/03/21 08:41:36;;;;;;;35.92;23.00;;;8.00;99.90;;;;;;6152029;23;20440;-72
2022/03/21 08:44:02;;;;;;;38.80;24.33;;;8.00;99.90;;;;;;6150601;23;20014;-73
2022/03/21 08:46:28;;;;;;;38.92;23.17;;;8.10;99.90;;;;;;6152435;23;20096;-72
2022/03/21 08:51:38;;;;;;;36.70;24.50;;;8.20;99.90;;;;;;6152233;23;20057;-73
2022/03/21 08:54:04;;;;;;;38.40;24.00;;;8.40;99.90;;;;;;6175968;23;20041;-73
2022/03/21 08:56:30;;;;;;;41.35;24.77;;;8.30;99.90;;;;;;6151018;23;20022;-75
2022/03/21 08:58:56;;;;;;;36.33;24.42;;;8.40;99.90;;;;;;6126695;23;20026;-73
2022/03/21 09:01:23;;;;;;;45.67;24.75;;;8.50;99.90;;;;;;6149946;23;20097;-73
2022/03/21 09:03:49;;;;;;;38.38;23.65;;;8.50;99.90;;;;;;6126307;23;20048;-74
2022/03/21 09:06:15;;;;;;;38.20;23.45;;;8.60;99.90;;;;;;6126523;23;20017;-72
2022/03/21 09:08:42;;;;;;;36.10;23.33;;;8.60;99.90;;;;;;6152553;23;20144;-73
2022/03/21 09:11:08;;;;;;;41.20;23.65;;;8.70;99.90;;;;;;6150425;23;20020;-73
2022/03/21 09:13:34;;;;;;;39.28;23.95;;;9.10;99.90;;;;;;6151686;23;20375;-75
2022/03/21 09:16:00;;;;;;;40.92;24.83;;;8.80;99.90;;;;;;6152630;23;20073;-74
2022/03/21 09:18:26;;;;;;;37.55;23.70;;;8.90;99.90;;;;;;6151934;23;20021;-75
2022/03/21 09:20:52;;;;;;;43.53;24.52;;;8.90;99.90;;;;;;6153919;23;20018;-75
2022/03/21 09:23:17;;;;;;;41.22;23.27;;;9.00;99.90;;;;;;6128345;23;20087;-75
2022/03/21 09:25:43;;;;;;;36.03;23.75;;;9.00;99.90;;;;;;6103938;23;20051;-74
2022/03/21 09:28:09;;;;;;;35.50;22.48;;;9.10;99.90;;;;;;6128262;23;20028;-81
2022/03/21 09:30:37;;;;;;;45.83;24.20;;;9.10;99.90;;;;;;6154428;23;20052;-81
2022/03/21 09:33:02;;;;;;;36.53;22.50;;;9.20;99.90;;;;;;6152567;23;20400;-81
2022/03/21 09:35:28;;;;;;;41.75;24.08;;;9.20;99.90;;;;;;6153083;23;20021;-81
2022/03/21 09:37:54;;;;;;;39.42;22.33;;;9.30;99.90;;;;;;6152835;23;20020;-78
2022/03/21 09:40:20;;;;;;;36.33;22.55;;;9.30;99.90;;;;;;6151728;23;20089;-82
2022/03/21 09:42:47;;;;;;;40.47;23.75;;;9.40;99.90;;;;;;6152720;23;20013;-82
2022/03/21 09:45:13;;;;;;;36.60;23.23;;;9.50;99.90;;;;;;6152625;23;20036;-80
2022/03/21 09:50:31;;;;;;;37.10;22.45;;;9.50;99.90;;;;;;6152647;23;20336;-81
2022/03/21 09:52:59;;;;;;;37.10;22.70;;;9.50;99.90;;;;;;6128133;23;20444;-83
2022/03/21 09:55:24;;;;;;;44.65;23.05;;;10.10;99.90;;;;;;6153944;23;20124;-83
2022/03/21 09:57:53;;;;;;;39.13;23.45;;;9.60;99.90;;;;;;6152050;23;20091;-83
2022/03/21 10:00:19;;;;;;;39.70;22.45;;;9.70;99.90;;;;;;6152780;23;20021;-78
2022/03/21 10:02:45;;;;;;;32.75;22.55;;;9.70;99.90;;;;;;6128210;23;20040;-81
2022/03/21 10:05:33;;;;;;;36.92;21.05;;;9.90;99.90;;;;;;6128410;23;20440;-78
2022/03/21 10:08:22;;;;;;;37.53;21.05;;;9.80;99.90;;;;;;6153872;23;20527;-74
2022/03/21 10:10:54;;;;;;;35.72;21.38;;;9.80;99.90;;;;;;6127581;23;20021;-73
2022/03/21 10:13:21;;;;;;;37.92;21.75;;;9.90;99.90;;;;;;6151763;23;20036;-73
2022/03/21 10:15:48;;;;;;;33.63;21.50;;;10.10;99.90;;;;;;6127594;23;20117;-72
2022/03/21 10:18:14;;;;;;;31.33;21.00;;;10.00;99.90;;;;;;6152440;23;20049;-74
2022/03/21 10:20:40;;;;;;;36.85;21.42;;;10.00;99.90;;;;;;6127360;23;20021;-74
2022/03/21 10:23:23;;;;;;;34.92;21.00;;;10.00;99.90;;;;;;6152205;23;20021;-73
2022/03/21 10:25:50;;;;;;;34.22;21.63;;;10.10;99.90;;;;;;6151563;23;20100;-73
2022/03/21 10:28:33;;;;;;;35.42;21.27;;;10.40;99.90;;;;;;6127852;23;20024;-73
2022/03/21 10:31:01;;;;;;;33.35;20.35;;;10.20;99.90;;;;;;6128273;23;20340;-74
2022/03/21 10:33:30;;;;;;;32.78;20.27;;;10.20;99.90;;;;;;6128162;23;20049;-74
2022/03/21 10:35:56;;;;;;;30.27;18.88;;;10.20;99.90;;;;;;6153564;23;20333;-78
2022/03/21 10:38:34;;;;;;;30.83;19.45;;;10.20;99.90;;;;;;6152835;23;20032;-72
2022/03/21 10:41:07;;;;;;;35.75;19.80;;;10.30;99.90;;;;;;6152502;23;20093;-77
2022/03/21 10:43:37;;;;;;;29.35;19.40;;;10.30;99.90;;;;;;6153292;23;20066;-79
2022/03/21 10:46:08;;;;;;;32.83;21.77;;;10.30;99.90;;;;;;6154223;23;20014;-76
2022/03/21 10:48:35;;;;;;;35.47;21.80;;;10.30;99.90;;;;;;6154259;23;20021;-79
2022/03/21 10:51:04;;;;;;;31.33;19.75;;;10.30;99.90;;;;;;6154349;23;20038;-78
2022/03/21 10:53:39;;;;;;;33.15;20.73;;;10.40;99.90;;;;;;6154294;23;20332;-78
2022/03/21 10:56:19;;;;;;;32.53;21.15;;;10.40;99.90;;;;;;6154322;23;20399;-78
2022/03/21 10:58:47;;;;;;;34.05;19.88;;;10.50;99.90;;;;;;6129672;23;20053;-78
2022/03/21 11:01:15;;;;;;;32.80;20.65;;;10.50;99.90;;;;;;6179539;23;20018;-78
2022/03/21 11:03:43;;;;;;;35.67;20.02;;;10.60;99.90;;;;;;6153990;23;20092;-78
2022/03/21 11:06:12;;;;;;;33.70;20.15;;;10.60;99.90;;;;;;6130576;23;20013;-77
2022/03/21 11:08:39;;;;;;;29.70;19.98;;;10.60;99.90;;;;;;6155720;23;20028;-78
2022/03/21 11:11:08;;;;;;;31.92;20.02;;;10.80;99.90;;;;;;6154222;23;20010;-78
2022/03/21 11:13:37;;;;;;;29.48;19.17;;;10.70;99.90;;;;;;6129433;23;20122;-78
2022/03/21 11:16:03;;;;;;;28.05;19.25;;;10.80;99.90;;;;;;6179228;23;20455;-78
2022/03/21 11:18:30;;;;;;;29.05;18.73;;;10.80;99.90;;;;;;6129409;23;20097;-78
2022/03/21 11:21:00;;;;;;;29.45;19.75;;;10.80;99.90;;;;;;6129559;23;20022;-78
2022/03/21 11:23:26;;;;;;;31.50;19.83;;;10.90;99.90;;;;;;6155728;23;20017;-79
2022/03/21 11:26:06;;;;;;;35.55;18.63;;;11.00;99.90;;;;;;6129422;23;20025;-79
2022/03/21 11:28:50;;;;;;;34.28;19.40;;;10.90;99.90;;;;;;6155240;23;20141;-79
2022/03/21 11:31:47;;;;;;;32.15;19.50;;;11.00;99.90;;;;;;6153860;23;20016;-78
2022/03/21 11:34:56;;;;;;;33.83;19.75;;;11.00;99.90;;;;;;6156166;23;20014;-79
2022/03/21 11:37:29;;;;;;;33.25;20.38;;;11.10;99.90;;;;;;6154022;23;20224;-78
2022/03/21 11:40:33;;;;;;;29.75;19.08;;;11.10;99.90;;;;;;6129466;23;20028;-78
2022/03/21 11:43:17;;;;;;;32.90;19.38;;;11.20;99.90;;;;;;6153792;23;20033;-78
2022/03/21 11:45:44;;;;;;;30.80;19.52;;;11.10;99.90;;;;;;6153704;23;20096;-77
2022/03/21 11:48:22;;;;;;;30.90;19.30;;;11.20;99.90;;;;;;6129597;23;20017;-78
2022/03/21 11:51:16;;;;;;;30.30;19.20;;;11.30;99.90;;;;;;6153978;23;20019;-77
2022/03/21 11:53:49;;;;;;;29.15;19.25;;;11.30;99.90;;;;;;6179153;23;20383;-78
2022/03/21 11:56:43;;;;;;;27.48;18.00;;;11.40;99.90;;;;;;6154241;23;20045;-77
2022/03/21 11:59:28;;;;;;;27.63;17.60;;;11.40;99.90;;;;;;6128885;23;20041;-78
2022/03/21 12:01:57;;;;;;;33.33;19.05;;;11.50;99.90;;;;;;6153204;23;20022;-78
2022/03/21 12:04:32;;;;;;;26.95;16.83;;;11.50;99.90;;;;;;6154107;23;20025;-77
2022/03/21 12:07:27;;;;;;;30.42;18.38;;;11.60;99.90;;;;;;6154705;23;20009;-78
2022/03/21 12:09:54;;;;;;;27.48;18.27;;;11.50;99.90;;;;;;6106723;23;20093;-78
2022/03/21 12:12:25;;;;;;;28.88;18.55;;;12.50;99.90;;;;;;6153994;23;20021;-78
2022/03/21 12:14:56;;;;;;;26.65;17.20;;;11.80;99.90;;;;;;6153702;23;20344;-77
2022/03/21 12:17:36;;;;;;;28.33;17.05;;;11.70;99.90;;;;;;6154741;23;20059;-78
2022/03/21 12:20:05;;;;;;;29.50;17.52;;;11.80;99.90;;;;;;6153427;23;20022;-78
2022/03/21 12:22:33;;;;;;;31.63;17.63;;;11.80;99.90;;;;;;6151397;23;20021;-78
2022/03/21 12:25:18;;;;;;;31.48;18.42;;;11.80;99.90;;;;;;6129299;23;20049;-78
2022/03/21 12:28:18;;;;;;;26.17;16.85;;;11.90;99.90;;;;;;6153147;23;20049;-78
2022/03/21 12:30:48;;;;;;;27.15;17.30;;;11.90;99.90;;;;;;6155394;23;20388;-79
2022/03/21 12:33:17;;;;;;;30.85;17.65;;;11.90;99.90;;;;;;6155009;23;20014;-79
2022/03/21 12:35:45;;;;;;;27.15;17.35;;;11.90;99.90;;;;;;6152777;23;20013;-77
2022/03/21 12:38:16;;;;;;;27.25;17.50;;;12.00;99.90;;;;;;6175920;23;20336;-77
2022/03/21 12:40:51;;;;;;;30.95;17.95;;;12.00;99.90;;;;;;6175935;23;20014;-78
2022/03/21 12:43:28;;;;;;;24.85;17.10;;;11.60;99.90;;;;;;6150712;23;20376;-78
2022/03/21 12:46:18;;;;;;;28.40;17.67;;;12.10;99.90;;;;;;6126477;23;20013;-81
2022/03/21 12:49:04;;;;;;;30.80;17.98;;;12.10;99.90;;;;;;6126813;23;20014;-82
2022/03/21 12:51:39;;;;;;;29.70;18.30;;;12.10;99.90;;;;;;6128171;23;20068;-79
2022/03/21 12:54:14;;;;;;;25.48;17.40;;;12.20;99.90;;;;;;6150822;23;20448;-79
2022/03/21 12:56:43;;;;;;;31.63;18.27;;;12.20;99.90;;;;;;6153164;23;20041;-79
2022/03/21 12:59:35;;;;;;;27.15;17.25;;;12.20;99.90;;;;;;6150523;23;20032;-83
2022/03/21 13:02:26;;;;;;;28.75;16.60;;;12.20;99.90;;;;;;6127061;23;20393;-80
2022/03/21 13:11:14;;;;;;;;;;;;;;;;;;;;;
2022/03/21 13:13:54;;;;;;;;;;;;;;;;;;;;;
2022/03/21 13:23:02;;;;;;;;;;;;;;;;;;;;;